createdAt,value
2022-07-29T00:01:44.342Z,101659.72
2022-07-29T00:04:14.283Z,101661.66
2022-07-29T00:06:43.502Z,101656.44
2022-07-29T00:09:12.729Z,101651.25
2022-07-29T00:11:41.665Z,101661.19
2022-07-29T00:14:10.513Z,101648.81
2022-07-29T00:16:41.164Z,101662.41
2022-07-29T00:19:09.975Z,101656.22
2022-07-29T00:21:39.994Z,101659.03
2022-07-29T00:24:08.891Z,101652.97
2022-07-29T00:26:37.727Z,101644.16
2022-07-29T00:29:32.970Z,101652.38
2022-07-29T00:31:56.877Z,101650.69
2022-07-29T00:34:43.072Z,101650.84
2022-07-29T00:37:11.828Z,101661.72
2022-07-29T00:39:40.749Z,101655.56
2022-07-29T00:42:10.704Z,101652.94
2022-07-29T00:44:40.106Z,101653.03
2022-07-29T00:47:11.073Z,101654.91
2022-07-29T00:49:40.750Z,101658.63
2022-07-29T00:52:10.603Z,101655.19
2022-07-29T00:54:44.703Z,101657.97
2022-07-29T00:57:14.634Z,101660.81
2022-07-29T00:59:43.931Z,101661.03
2022-07-29T01:02:14.094Z,101651.28
2022-07-29T01:04:43.214Z,101659.44
2022-07-29T01:07:12.233Z,101656.91
2022-07-29T01:09:46.623Z,101653.50
2022-07-29T01:12:17.115Z,101651.84
2022-07-29T01:14:46.512Z,101660.13
2022-07-29T01:17:20.030Z,101661.06
2022-07-29T01:19:51.749Z,101662.00
2022-07-29T01:22:27.249Z,101659.44
2022-07-29T01:25:04.735Z,101658.69
2022-07-29T01:27:40.630Z,101659.75
2022-07-29T01:30:13.251Z,101671.38
2022-07-29T01:32:45.275Z,101662.56
2022-07-29T01:35:18.797Z,101664.50
2022-07-29T01:37:49.253Z,101655.63
2022-07-29T01:40:22.229Z,101659.22
2022-07-29T01:42:52.619Z,101658.44
2022-07-29T01:45:25.593Z,101656.75
2022-07-29T01:47:56.662Z,101654.16
2022-07-29T01:50:28.954Z,101662.34
2022-07-29T01:52:59.033Z,101649.00
2022-07-29T01:55:31.396Z,101651.72
2022-07-29T01:58:01.224Z,101645.50
2022-07-29T02:00:32.803Z,101647.34
2022-07-29T02:03:03.872Z,101645.56
2022-07-29T02:05:34.841Z,101637.66
2022-07-29T02:08:06.339Z,101641.31
2022-07-29T02:10:36.561Z,101653.81
2022-07-29T02:13:06.649Z,101652.09
2022-07-29T02:15:37.751Z,101647.63
2022-07-29T02:18:09.354Z,101653.13
2022-07-29T02:20:39.996Z,101654.97
2022-07-29T02:23:11.121Z,101654.97
2022-07-29T02:25:40.155Z,101656.81
2022-07-29T02:28:09.598Z,101643.50
2022-07-29T02:30:42.601Z,101649.81
2022-07-29T02:33:14.319Z,101645.38
2022-07-29T02:35:44.063Z,101643.66
2022-07-29T02:38:32.372Z,101650.81
2022-07-29T02:41:02.544Z,101648.13
2022-07-29T02:43:32.759Z,101656.16
2022-07-29T02:46:05.943Z,101649.00
2022-07-29T02:48:43.970Z,101648.94
2022-07-29T02:51:43.795Z,101645.41
2022-07-29T02:54:08.790Z,101645.44
2022-07-29T02:56:39.199Z,101651.75
2022-07-29T02:59:10.392Z,101650.88
2022-07-29T03:01:42.411Z,101654.50
2022-07-29T03:04:11.944Z,101649.13
2022-07-29T03:06:43.079Z,101649.16
2022-07-29T03:09:13.774Z,101649.22
2022-07-29T03:11:49.480Z,101644.81
2022-07-29T03:14:21.555Z,101644.81
2022-07-29T03:16:52.857Z,101645.78
2022-07-29T03:19:22.538Z,101644.94
2022-07-29T03:21:51.461Z,101646.66
2022-07-29T03:24:26.843Z,101644.00
2022-07-29T03:26:56.768Z,101648.44
2022-07-29T03:29:33.484Z,101644.88
2022-07-29T03:32:08.302Z,101643.09
2022-07-29T03:34:38.872Z,101652.03
2022-07-29T03:37:08.738Z,101657.44
2022-07-29T03:39:40.806Z,101660.13
2022-07-29T03:42:12.066Z,101667.28
2022-07-29T03:44:43.027Z,101659.25
2022-07-29T03:47:16.074Z,101662.75
2022-07-29T03:49:46.609Z,101666.38
2022-07-29T03:52:15.818Z,101664.53
2022-07-29T03:54:44.770Z,101664.41
2022-07-29T03:57:13.970Z,101671.44
2022-07-29T03:59:43.788Z,101669.56
2022-07-29T04:02:26.214Z,101664.19
2022-07-29T04:05:00.272Z,101667.56
2022-07-29T04:07:31.063Z,101669.22
2022-07-29T04:10:00.008Z,101672.72
2022-07-29T04:12:29.574Z,101677.09
2022-07-29T04:14:58.402Z,101670.66
2022-07-29T04:17:28.731Z,101666.88
2022-07-29T04:19:57.747Z,101671.19
2022-07-29T04:22:26.835Z,101664.78
2022-07-29T04:24:59.096Z,101665.56
2022-07-29T04:27:32.253Z,101672.56
2022-07-29T04:30:01.058Z,101673.38
2022-07-29T04:32:31.358Z,101667.88
2022-07-29T04:35:00.777Z,101668.59
2022-07-29T04:37:29.562Z,101674.69
2022-07-29T04:39:58.271Z,101669.97
2022-07-29T04:42:27.890Z,101666.22
2022-07-29T04:44:58.244Z,101680.25
2022-07-29T04:47:31.659Z,101673.75
2022-07-29T04:50:00.479Z,101676.94
2022-07-29T04:52:29.285Z,101675.72
2022-07-29T04:54:58.158Z,101674.44
2022-07-29T04:57:26.846Z,101675.91
2022-07-29T04:59:55.536Z,101674.53
2022-07-29T05:02:24.715Z,101673.06
2022-07-29T05:04:54.967Z,101683.41
2022-07-29T05:07:23.667Z,101675.84
2022-07-29T05:09:53.657Z,101682.44
2022-07-29T05:12:22.628Z,101681.09
2022-07-29T05:14:51.317Z,101682.31
2022-07-29T05:17:20.268Z,101674.75
2022-07-29T05:19:49.055Z,101675.06
2022-07-29T05:22:19.173Z,101686.31
2022-07-29T05:24:48.344Z,101686.69
2022-07-29T05:27:17.126Z,101676.47
2022-07-29T05:29:46.048Z,101675.94
2022-07-29T05:32:15.034Z,101683.63
2022-07-29T05:34:50.127Z,101680.53
2022-07-29T05:37:21.164Z,101680.06
2022-07-29T05:39:56.749Z,101684.91
2022-07-29T05:42:26.595Z,101687.22
2022-07-29T05:44:55.463Z,101679.50
2022-07-29T05:47:24.524Z,101675.38
2022-07-29T05:49:53.551Z,101676.69
2022-07-29T05:52:23.750Z,101681.50
2022-07-29T05:54:52.858Z,101671.00
2022-07-29T05:57:22.857Z,101660.66
2022-07-29T05:59:52.126Z,101667.31
2022-07-29T06:02:20.947Z,101670.28
2022-07-29T06:04:50.489Z,101666.16
2022-07-29T06:07:19.385Z,101661.13
2022-07-29T06:09:49.643Z,101665.13
2022-07-29T06:12:18.704Z,101674.50
2022-07-29T06:14:50.870Z,101679.34
2022-07-29T06:17:22.655Z,101672.50
2022-07-29T06:19:51.388Z,101677.34
2022-07-29T06:22:20.746Z,101678.66
2022-07-29T06:24:51.264Z,101676.22
2022-07-29T06:27:20.102Z,101682.91
2022-07-29T06:29:48.884Z,101685.00
2022-07-29T06:32:17.999Z,101683.53
2022-07-29T06:34:51.932Z,101686.63
2022-07-29T06:37:20.842Z,101687.78
2022-07-29T06:40:11.211Z,101681.84
2022-07-29T06:42:43.710Z,101684.84
2022-07-29T06:45:12.521Z,101682.41
2022-07-29T06:47:41.459Z,101682.75
2022-07-29T06:50:12.807Z,101675.94
2022-07-29T06:52:41.844Z,101680.78
2022-07-29T06:55:12.457Z,101689.25
2022-07-29T06:57:54.067Z,101687.75
2022-07-29T07:00:23.097Z,101693.50
2022-07-29T07:02:51.826Z,101688.41
2022-07-29T07:05:20.754Z,101686.03
2022-07-29T07:07:49.747Z,101690.78
2022-07-29T07:10:19.966Z,101690.16
2022-07-29T07:12:48.674Z,101685.16
2022-07-29T07:15:17.537Z,101689.06
2022-07-29T07:17:46.261Z,101687.44
2022-07-29T07:20:14.908Z,101690.47
2022-07-29T07:22:43.834Z,101693.47
2022-07-29T07:25:12.933Z,101687.47
2022-07-29T07:27:43.403Z,101687.69
2022-07-29T07:30:12.697Z,101681.75
2022-07-29T07:32:41.416Z,101681.16
2022-07-29T07:35:10.791Z,101682.41
2022-07-29T07:37:41.450Z,101677.34
2022-07-29T07:40:11.286Z,101676.91
2022-07-29T07:42:40.782Z,101676.41
2022-07-29T07:45:16.178Z,101679.47
2022-07-29T07:47:45.761Z,101672.66
2022-07-29T07:50:18.649Z,101676.63
2022-07-29T07:52:48.880Z,101681.53
2022-07-29T07:55:18.252Z,101679.19
2022-07-29T07:57:47.042Z,101678.78
2022-07-29T08:00:18.239Z,101674.88
2022-07-29T08:02:47.123Z,101680.78
2022-07-29T08:05:18.157Z,101686.66
2022-07-29T08:07:47.754Z,101687.03
2022-07-29T08:10:36.846Z,101689.34
2022-07-29T08:13:05.771Z,101691.44
2022-07-29T08:15:35.919Z,101686.31
2022-07-29T08:18:08.621Z,101687.66
2022-07-29T08:20:39.277Z,101684.25
2022-07-29T08:23:09.596Z,101680.91
2022-07-29T08:25:40.088Z,101692.13
2022-07-29T08:28:09.635Z,101695.91
2022-07-29T08:30:39.705Z,101698.13
2022-07-29T08:33:08.388Z,101700.22
2022-07-29T08:35:37.609Z,101698.91
2022-07-29T08:38:06.352Z,101699.97
2022-07-29T08:40:35.034Z,101704.00
2022-07-29T08:43:08.324Z,101689.06
2022-07-29T08:45:44.328Z,101693.19
2022-07-29T08:48:19.767Z,101688.25
2022-07-29T08:50:49.587Z,101701.34
2022-07-29T08:53:19.641Z,101695.31
2022-07-29T08:55:49.576Z,101701.94
2022-07-29T08:58:22.882Z,101704.09
2022-07-29T09:00:55.254Z,101698.22
2022-07-29T09:03:25.584Z,101694.91
2022-07-29T09:05:55.408Z,101695.31
2022-07-29T09:08:25.092Z,101696.72
2022-07-29T09:10:54.611Z,101696.34
2022-07-29T09:13:23.838Z,101700.50
2022-07-29T09:15:53.883Z,101699.13
2022-07-29T09:18:39.563Z,101696.94
2022-07-29T09:21:27.135Z,101694.84
2022-07-29T09:24:03.652Z,101696.25
2022-07-29T09:26:33.408Z,101687.81
2022-07-29T09:29:02.129Z,101683.09
2022-07-29T09:31:39.425Z,101687.44
2022-07-29T09:34:10.295Z,101690.81
2022-07-29T09:36:42.391Z,101675.19
2022-07-29T09:39:11.817Z,101688.72
2022-07-29T09:41:48.008Z,101684.88
2022-07-29T09:44:17.855Z,101677.31
2022-07-29T09:47:06.858Z,101679.97
2022-07-29T09:49:36.905Z,101686.91
2022-07-29T09:52:06.989Z,101683.97
2022-07-29T09:54:38.912Z,101685.69
2022-07-29T09:57:09.927Z,101682.94
2022-07-29T09:59:50.201Z,101675.63
2022-07-29T10:02:23.652Z,101670.31
2022-07-29T10:04:53.088Z,101666.69
2022-07-29T10:07:22.114Z,101664.84
2022-07-29T10:09:57.897Z,101665.72
2022-07-29T10:12:26.854Z,101660.28
2022-07-29T10:14:55.814Z,101656.53
2022-07-29T10:17:26.054Z,101667.31
2022-07-29T10:19:55.187Z,101664.38
2022-07-29T10:22:50.800Z,101667.84
2022-07-29T10:25:13.129Z,101654.94
2022-07-29T10:27:41.827Z,101654.69
2022-07-29T10:30:11.280Z,101659.16
2022-07-29T10:32:57.755Z,101659.66
2022-07-29T10:35:44.429Z,101657.56
2022-07-29T10:38:26.692Z,101654.59
2022-07-29T10:41:19.343Z,101655.19
2022-07-29T10:43:51.249Z,101656.69
2022-07-29T10:46:21.014Z,101651.00
2022-07-29T10:49:09.739Z,101656.19
2022-07-29T10:51:57.793Z,101655.09
2022-07-29T10:54:51.145Z,101647.50
2022-07-29T10:57:53.824Z,101653.47
2022-07-29T11:00:33.129Z,101655.84
2022-07-29T11:03:04.689Z,101652.72
2022-07-29T11:05:56.872Z,101654.44
2022-07-29T11:08:29.232Z,101654.44
2022-07-29T11:11:17.340Z,101650.75
2022-07-29T11:13:55.812Z,101643.53
2022-07-29T11:16:26.651Z,101647.28
2022-07-29T11:19:26.357Z,101638.34
2022-07-29T11:21:59.260Z,101632.88
2022-07-29T11:24:30.263Z,101642.91
2022-07-29T11:27:19.657Z,101645.50
2022-07-29T11:29:58.543Z,101650.97
2022-07-29T11:32:29.409Z,101640.03
2022-07-29T11:35:18.486Z,101631.75
2022-07-29T11:37:55.353Z,101633.59
2022-07-29T11:40:26.855Z,101641.66
2022-07-29T11:42:55.566Z,101640.69
2022-07-29T11:45:44.460Z,101639.81
2022-07-29T11:48:28.774Z,101660.59
2022-07-29T11:51:00.847Z,101647.78
2022-07-29T11:53:32.546Z,101646.66
2022-07-29T11:56:03.646Z,101646.41
2022-07-29T11:58:33.736Z,101645.31
2022-07-29T12:01:04.948Z,101653.22
2022-07-29T12:03:36.961Z,101644.78
2022-07-29T12:06:14.800Z,101651.88
2022-07-29T12:08:44.949Z,101646.00
2022-07-29T12:11:21.415Z,101641.31
2022-07-29T12:13:51.591Z,101644.66
2022-07-29T12:16:25.584Z,101637.06
2022-07-29T12:18:59.829Z,101635.78
2022-07-29T12:21:29.311Z,101634.53
2022-07-29T12:24:05.413Z,101625.06
2022-07-29T12:26:40.481Z,101633.19
2022-07-29T12:29:14.084Z,101627.44
2022-07-29T12:31:47.503Z,101634.50
2022-07-29T12:34:17.764Z,101627.91
2022-07-29T12:36:46.713Z,101626.81
2022-07-29T12:39:15.487Z,101628.41
2022-07-29T12:41:44.443Z,101630.00
2022-07-29T12:44:13.357Z,101637.97
2022-07-29T12:46:42.434Z,101637.97
2022-07-29T12:49:23.251Z,101638.69
2022-07-29T12:51:52.396Z,101645.91
2022-07-29T12:54:21.781Z,101633.97
2022-07-29T12:56:59.941Z,101629.22
2022-07-29T12:59:29.200Z,101637.22
2022-07-29T13:02:01.035Z,101638.06
2022-07-29T13:04:32.882Z,101637.22
2022-07-29T13:08:29.522Z,101638.34
2022-07-29T13:09:51.703Z,101632.25
2022-07-29T13:12:21.863Z,101637.06
2022-07-29T13:14:51.404Z,101634.72
2022-07-29T13:17:21.751Z,101633.25
2022-07-29T13:19:53.037Z,101628.06
2022-07-29T13:22:23.958Z,101630.06
2022-07-29T13:24:53.904Z,101632.06
2022-07-29T13:27:23.747Z,101626.81
2022-07-29T13:29:53.486Z,101625.94
2022-07-29T13:32:28.376Z,101625.06
2022-07-29T13:35:00.041Z,101632.31
2022-07-29T13:37:30.743Z,101639.53
2022-07-29T13:40:00.335Z,101624.84
2022-07-29T13:42:29.416Z,101625.72
2022-07-29T13:44:58.235Z,101633.78
2022-07-29T13:47:32.247Z,101628.31
2022-07-29T13:50:03.708Z,101623.72
2022-07-29T13:52:35.516Z,101630.06
2022-07-29T13:55:04.708Z,101639.25
2022-07-29T13:57:33.824Z,101633.78
2022-07-29T14:00:02.740Z,101632.06
2022-07-29T14:02:38.660Z,101630.16
2022-07-29T14:05:10.800Z,101632.78
2022-07-29T14:07:39.995Z,101630.06
2022-07-29T14:10:09.183Z,101636.13
2022-07-29T14:12:38.055Z,101636.47
2022-07-29T14:15:07.456Z,101629.84
2022-07-29T14:17:36.420Z,101638.56
2022-07-29T14:20:05.659Z,101633.31
2022-07-29T14:22:40.200Z,101625.19
2022-07-29T14:25:14.611Z,101619.25
2022-07-29T14:27:44.613Z,101621.88
2022-07-29T14:30:13.950Z,101622.09
2022-07-29T14:32:42.673Z,101622.03
2022-07-29T14:35:11.566Z,101617.59
2022-07-29T14:37:43.379Z,101620.28
2022-07-29T14:40:12.595Z,101609.47
2022-07-29T14:42:41.436Z,101612.13
2022-07-29T14:45:11.243Z,101613.47
2022-07-29T14:47:40.924Z,101616.16
2022-07-29T14:50:10.161Z,101619.44
2022-07-29T14:52:39.116Z,101617.34
2022-07-29T14:55:16.685Z,101620.47
2022-07-29T14:57:49.601Z,101608.06
2022-07-29T15:00:19.113Z,101621.66
2022-07-29T15:03:01.390Z,101617.56
2022-07-29T15:05:31.423Z,101625.63
2022-07-29T15:08:00.871Z,101619.09
2022-07-29T15:10:30.959Z,101622.03
2022-07-29T15:13:00.159Z,101613.13
2022-07-29T15:15:29.131Z,101605.19
2022-07-29T15:17:57.809Z,101605.97
2022-07-29T15:20:28.121Z,101615.09
2022-07-29T15:22:57.040Z,101614.91
2022-07-29T15:25:26.416Z,101616.38
2022-07-29T15:28:01.701Z,101622.25
2022-07-29T15:30:33.977Z,101609.13
2022-07-29T15:33:04.711Z,101608.75
2022-07-29T15:35:40.625Z,101607.16
2022-07-29T15:38:09.856Z,101603.38
2022-07-29T15:40:38.944Z,101592.66
2022-07-29T15:43:09.090Z,101590.94
2022-07-29T15:45:40.529Z,101589.16
2022-07-29T15:48:13.233Z,101590.31
2022-07-29T15:50:46.928Z,101587.09
2022-07-29T15:53:16.110Z,101585.22
2022-07-29T15:55:45.417Z,101578.25
2022-07-29T15:58:15.471Z,101574.38
2022-07-29T16:00:44.352Z,101573.88
2022-07-29T16:03:13.354Z,101564.91
2022-07-29T16:05:42.136Z,101564.53
2022-07-29T16:08:10.892Z,101573.59
2022-07-29T16:10:39.805Z,101562.69
2022-07-29T16:13:08.767Z,101565.41
2022-07-29T16:15:39.067Z,101565.84
2022-07-29T16:18:08.967Z,101568.72
2022-07-29T16:20:38.424Z,101570.38
2022-07-29T16:23:07.767Z,101573.44
2022-07-29T16:25:58.504Z,101572.25
2022-07-29T16:28:25.534Z,101574.53
2022-07-29T16:30:55.812Z,101577.13
2022-07-29T16:33:24.603Z,101563.75
2022-07-29T16:35:53.441Z,101568.31
2022-07-29T16:38:22.329Z,101568.00
2022-07-29T16:40:51.115Z,101568.09
2022-07-29T16:43:19.929Z,101563.22
2022-07-29T16:45:49.023Z,101556.88
2022-07-29T16:48:19.771Z,101559.72
2022-07-29T16:50:48.503Z,101556.06
2022-07-29T16:53:17.377Z,101546.84
2022-07-29T16:55:46.213Z,101548.28
2022-07-29T16:58:14.900Z,101548.28
2022-07-29T17:00:43.933Z,101547.72
2022-07-29T17:03:12.828Z,101550.19
2022-07-29T17:05:50.642Z,101548.28
2022-07-29T17:08:23.089Z,101557.53
2022-07-29T17:10:51.829Z,101550.72
2022-07-29T17:13:20.762Z,101554.09
2022-07-29T17:15:49.823Z,101546.00
2022-07-29T17:18:18.657Z,101548.25
2022-07-29T17:20:48.873Z,101552.00
2022-07-29T17:23:17.771Z,101545.75
2022-07-29T17:25:46.521Z,101541.34
2022-07-29T17:28:15.241Z,101548.66
2022-07-29T17:30:44.142Z,101549.38
2022-07-29T17:33:12.839Z,101550.75
2022-07-29T17:35:58.949Z,101544.50
2022-07-29T17:38:29.185Z,101547.88
2022-07-29T17:40:58.001Z,101549.13
2022-07-29T17:43:26.819Z,101552.75
2022-07-29T17:45:59.122Z,101554.63
2022-07-29T17:48:28.342Z,101558.53
2022-07-29T17:50:58.123Z,101556.63
2022-07-29T17:53:26.796Z,101541.16
2022-07-29T17:55:58.291Z,101542.81
2022-07-29T17:58:27.510Z,101545.34
2022-07-29T18:00:56.380Z,101545.03
2022-07-29T18:03:25.455Z,101545.50
2022-07-29T18:05:54.625Z,101539.66
2022-07-29T18:08:23.418Z,101541.00
2022-07-29T18:10:52.643Z,101534.25
2022-07-29T18:13:23.047Z,101542.06
2022-07-29T18:15:52.181Z,101545.22
2022-07-29T18:18:21.197Z,101531.28
2022-07-29T18:20:50.296Z,101538.91
2022-07-29T18:23:19.074Z,101547.66
2022-07-29T18:25:47.958Z,101537.09
2022-07-29T18:28:16.830Z,101537.63
2022-07-29T18:30:47.612Z,101535.28
2022-07-29T18:33:22.034Z,101536.56
2022-07-29T18:36:10.835Z,101540.53
2022-07-29T18:38:41.199Z,101525.50
2022-07-29T18:41:10.172Z,101534.75
2022-07-29T18:43:38.907Z,101537.72
2022-07-29T18:46:09.042Z,101543.38
2022-07-29T18:48:38.315Z,101542.56
2022-07-29T18:51:09.214Z,101548.97
2022-07-29T18:53:38.577Z,101545.44
2022-07-29T18:56:08.022Z,101542.88
2022-07-29T18:58:38.301Z,101541.94
2022-07-29T19:01:07.405Z,101541.91
2022-07-29T19:03:37.695Z,101543.69
2022-07-29T19:06:06.729Z,101542.81
2022-07-29T19:08:38.468Z,101538.28
2022-07-29T19:11:07.303Z,101538.19
2022-07-29T19:13:37.118Z,101535.38
2022-07-29T19:16:12.010Z,101539.00
2022-07-29T19:18:43.170Z,101538.00
2022-07-29T19:21:12.171Z,101542.47
2022-07-29T19:24:01.671Z,101541.38
2022-07-29T19:26:30.207Z,101535.94
2022-07-29T19:28:58.918Z,101536.69
2022-07-29T19:31:28.176Z,101541.97
2022-07-29T19:33:58.537Z,101548.03
2022-07-29T19:36:27.366Z,101546.06
2022-07-29T19:38:56.090Z,101541.34
2022-07-29T19:41:24.971Z,101539.25
2022-07-29T19:43:53.723Z,101542.47
2022-07-29T19:46:22.752Z,101536.75
2022-07-29T19:48:53.009Z,101533.78
2022-07-29T19:51:23.673Z,101538.00
2022-07-29T19:53:52.469Z,101541.31
2022-07-29T19:56:21.418Z,101533.78
2022-07-29T19:58:53.026Z,101541.75
2022-07-29T20:01:21.990Z,101537.09
2022-07-29T20:03:50.710Z,101540.47
2022-07-29T20:06:20.041Z,101534.75
2022-07-29T20:08:55.382Z,101546.19
2022-07-29T20:11:29.725Z,101536.09
2022-07-29T20:13:58.714Z,101543.09
2022-07-29T20:16:27.474Z,101532.91
2022-07-29T20:18:56.220Z,101541.69
2022-07-29T20:21:26.778Z,101546.69
2022-07-29T20:24:00.384Z,101550.81
2022-07-29T20:26:29.719Z,101546.16
2022-07-29T20:28:58.633Z,101547.72
2022-07-29T20:31:27.720Z,101539.38
2022-07-29T20:33:56.631Z,101551.78
2022-07-29T20:36:25.371Z,101545.31
2022-07-29T20:38:54.349Z,101543.34
2022-07-29T20:41:24.730Z,101539.56
2022-07-29T20:43:53.438Z,101540.28
2022-07-29T20:46:22.164Z,101542.72
2022-07-29T20:48:51.171Z,101539.63
2022-07-29T20:51:19.938Z,101552.75
2022-07-29T20:53:49.179Z,101547.84
2022-07-29T20:56:18.079Z,101547.50
2022-07-29T20:58:48.158Z,101544.44
2022-07-29T21:01:17.202Z,101546.75
2022-07-29T21:03:46.167Z,101555.41
2022-07-29T21:06:15.961Z,101549.63
2022-07-29T21:08:44.636Z,101556.41
2022-07-29T21:11:13.741Z,101556.06
2022-07-29T21:13:44.924Z,101557.47
2022-07-29T21:16:18.641Z,101557.84
2022-07-29T21:18:47.950Z,101554.66
2022-07-29T21:21:18.299Z,101547.91
2022-07-29T21:23:47.301Z,101547.47
2022-07-29T21:26:16.089Z,101551.50
2022-07-29T21:28:44.183Z,101542.13
2022-07-29T21:31:13.982Z,101543.44
2022-07-29T21:33:45.877Z,101545.53
2022-07-29T21:36:46.837Z,101538.66
2022-07-29T21:39:07.251Z,101542.59
2022-07-29T21:41:36.334Z,101543.06
2022-07-29T21:44:05.216Z,101536.34
2022-07-29T21:46:34.004Z,101550.06
2022-07-29T21:49:04.602Z,101544.09
2022-07-29T21:51:33.336Z,101539.97
2022-07-29T21:54:02.064Z,101542.09
2022-07-29T21:56:31.977Z,101541.59
2022-07-29T21:59:01.444Z,101541.97
2022-07-29T22:01:39.453Z,101542.25
2022-07-29T22:04:09.969Z,101543.44
2022-07-29T22:06:38.732Z,101548.31
2022-07-29T22:09:07.711Z,101550.41
2022-07-29T22:11:36.924Z,101549.78
2022-07-29T22:14:07.345Z,101543.72
2022-07-29T22:16:36.174Z,101537.81
2022-07-29T22:19:05.119Z,101532.63
2022-07-29T22:21:35.163Z,101531.09
2022-07-29T22:24:04.181Z,101533.97
2022-07-29T22:26:33.261Z,101537.78
2022-07-29T22:29:01.970Z,101531.75
2022-07-29T22:31:30.784Z,101528.25
2022-07-29T22:33:59.712Z,101520.41
2022-07-29T22:36:28.531Z,101525.91
2022-07-29T22:38:58.593Z,101508.16
2022-07-29T22:41:27.503Z,101506.53
2022-07-29T22:43:56.250Z,101509.34
2022-07-29T22:46:24.951Z,101504.09
2022-07-29T22:48:54.046Z,101501.53
2022-07-29T22:51:22.961Z,101500.78
2022-07-29T22:53:51.927Z,101496.41
2022-07-29T22:56:22.255Z,101497.41
2022-07-29T22:58:50.997Z,101492.19
2022-07-29T23:01:37.933Z,101503.03
2022-07-29T23:04:07.613Z,101495.06
2022-07-29T23:06:36.409Z,101497.75
2022-07-29T23:09:05.381Z,101498.66
2022-07-29T23:11:35.621Z,101487.91
2022-07-29T23:14:04.294Z,101489.72
2022-07-29T23:16:33.032Z,101490.75
2022-07-29T23:19:02.277Z,101491.75
2022-07-29T23:21:30.949Z,101488.16
2022-07-29T23:23:59.872Z,101488.25
2022-07-29T23:26:28.784Z,101486.56
2022-07-29T23:28:58.915Z,101482.16
2022-07-29T23:31:27.850Z,101479.56
2022-07-29T23:33:56.724Z,101483.22
2022-07-29T23:36:25.410Z,101477.88
2022-07-29T23:38:55.275Z,101479.75
2022-07-29T23:41:24.962Z,101473.56
2022-07-29T23:43:53.829Z,101477.31
2022-07-29T23:46:24.202Z,101479.13
2022-07-29T23:48:53.380Z,101479.19
2022-07-29T23:51:22.408Z,101478.38
2022-07-29T23:53:53.862Z,101476.59
2022-07-29T23:56:24.000Z,101480.28
2022-07-29T23:58:52.858Z,101483.94
